Time;durP1;ratioP1;P1;durP2;ratioP2;P2;SDS_P1;SDS_P2;PMS_P1;PMS_P2;Temp;Humidity;BMP_temperature;BMP_pressure;BME280_temperature;BME280_humidity;BME280_pressure;Samples;Min_cycle;Max_cycle;Signal;HPM_P1;HPM_P2
2023/06/27 00:01:15;;;;;;;4.28;1.55;;;21.80;71.40;;;;;;5093993;28;20204;-65
2023/06/27 00:03:42;;;;;;;2.75;1.50;;;21.80;71.20;;;;;;5092524;28;20216;-65
2023/06/27 00:06:09;;;;;;;3.85;1.60;;;21.80;71.20;;;;;;5091319;28;20208;-65
2023/06/27 00:08:35;;;;;;;3.67;1.50;;;21.90;71.30;;;;;;5091521;28;20208;-65
2023/06/27 00:11:02;;;;;;;5.85;1.90;;;21.90;71.30;;;;;;5091107;28;20212;-65
2023/06/27 00:13:29;;;;;;;3.10;1.50;;;21.90;71.30;;;;;;5090970;28;20607;-65
2023/06/27 00:16:00;;;;;;;4.55;1.83;;;21.90;71.40;;;;;;5090831;28;20212;-65
2023/06/27 00:18:34;;;;;;;3.13;1.60;;;21.90;71.30;;;;;;5094182;28;20317;-65
2023/06/27 00:21:01;;;;;;;4.38;1.50;;;21.90;71.30;;;;;;5095415;28;20222;-65
2023/06/27 00:23:33;;;;;;;3.30;1.63;;;21.90;71.40;;;;;;5095235;28;20224;-65
2023/06/27 00:26:00;;;;;;;5.07;1.70;;;21.80;71.20;;;;;;5095124;28;20204;-65
2023/06/27 00:28:27;;;;;;;3.28;1.70;;;21.70;71.70;;;;;;5095205;28;20212;-65
2023/06/27 00:30:54;;;;;;;4.53;1.98;;;21.70;72.00;;;;;;5095062;28;20204;-65
2023/06/27 00:33:22;;;;;;;2.78;1.50;;;21.70;72.30;;;;;;5094808;28;20336;-64
2023/06/27 00:35:49;;;;;;;3.13;1.42;;;21.60;73.00;;;;;;5094616;28;20210;-65
2023/06/27 00:38:16;;;;;;;5.43;2.22;;;21.50;73.20;;;;;;5094702;28;20231;-64
2023/06/27 00:40:42;;;;;;;4.30;2.30;;;21.50;73.90;;;;;;5094732;28;20234;-66
2023/06/27 00:43:09;;;;;;;6.10;1.98;;;21.40;74.40;;;;;;5094957;28;20224;-64
2023/06/27 00:45:36;;;;;;;4.00;1.73;;;21.40;75.00;;;;;;5094876;28;20219;-65
2023/06/27 00:48:03;;;;;;;4.38;1.90;;;21.30;75.60;;;;;;5094595;28;20261;-64
2023/06/27 00:50:32;;;;;;;3.97;1.67;;;21.30;76.50;;;;;;5094566;28;20208;-64
2023/06/27 00:53:00;;;;;;;5.55;1.95;;;21.20;76.40;;;;;;5094218;28;20255;-64
2023/06/27 00:55:28;;;;;;;6.72;1.63;;;21.10;76.70;;;;;;5094291;28;20679;-64
2023/06/27 00:57:55;;;;;;;5.10;1.70;;;21.10;77.30;;;;;;5093998;28;20200;-64
2023/06/27 01:00:22;;;;;;;3.80;1.65;;;21.00;77.20;;;;;;5094221;28;20208;-64
2023/06/27 01:02:48;;;;;;;4.10;1.80;;;21.00;77.20;;;;;;5094589;28;20228;-64
2023/06/27 01:05:17;;;;;;;5.68;1.77;;;20.90;77.40;;;;;;5094196;28;20204;-64
2023/06/27 01:07:52;;;;;;;4.80;1.90;;;20.90;77.40;;;;;;5093927;28;20212;-65
2023/06/27 01:10:26;;;;;;;4.35;1.92;;;20.90;77.20;;;;;;5094407;28;20203;-64
2023/06/27 01:13:00;;;;;;;6.40;1.75;;;20.90;77.50;;;;;;5098886;22;20235;-57
2023/06/27 01:15:27;;;;;;;4.63;1.80;;;20.90;77.60;;;;;;5073680;28;20193;-57
2023/06/27 01:17:55;;;;;;;4.03;2.05;;;20.90;78.10;;;;;;5073789;28;20232;-57
2023/06/27 01:20:23;;;;;;;2.58;1.70;;;20.90;78.20;;;;;;5073479;28;20292;-56
2023/06/27 01:23:02;;;;;;;4.30;1.80;;;20.90;78.60;;;;;;5073574;28;20229;-56
2023/06/27 01:25:32;;;;;;;4.22;1.73;;;20.90;78.40;;;;;;5073336;28;20220;-58
2023/06/27 01:27:59;;;;;;;3.97;1.73;;;20.90;78.30;;;;;;5073086;28;20595;-56
2023/06/27 01:30:25;;;;;;;4.43;1.90;;;21.00;78.20;;;;;;5073389;28;20208;-59
2023/06/27 01:33:05;;;;;;;3.70;2.00;;;21.00;78.00;;;;;;5073155;28;20233;-57
2023/06/27 01:35:39;;;;;;;2.90;1.58;;;21.00;78.00;;;;;;5073485;28;20266;-58
2023/06/27 01:38:10;;;;;;;3.20;1.70;;;21.00;78.50;;;;;;5073156;28;20208;-55
2023/06/27 01:40:40;;;;;;;3.92;1.75;;;20.90;78.40;;;;;;5073488;28;20208;-58
2023/06/27 01:43:10;;;;;;;3.95;1.90;;;20.90;79.30;;;;;;5073257;28;20227;-57
2023/06/27 01:45:39;;;;;;;4.05;1.90;;;20.80;78.30;;;;;;5073401;28;20291;-57
2023/06/27 01:48:07;;;;;;;6.68;2.38;;;20.80;78.70;;;;;;5073024;28;20664;-58
2023/06/27 01:50:35;;;;;;;2.83;1.50;;;20.70;78.60;;;;;;5072955;28;20212;-58
2023/06/27 01:53:02;;;;;;;4.03;1.88;;;20.60;78.70;;;;;;5072886;28;20236;-58
2023/06/27 01:55:29;;;;;;;5.95;1.80;;;20.60;78.80;;;;;;5073454;28;20207;-58
2023/06/27 01:57:58;;;;;;;3.15;1.85;;;20.50;78.60;;;;;;5072669;28;20204;-56
2023/06/27 02:00:26;;;;;;;2.70;1.60;;;20.50;78.80;;;;;;5073132;28;20605;-58
2023/06/27 02:02:52;;;;;;;5.28;1.80;;;20.50;79.30;;;;;;5072873;28;20704;-57
2023/06/27 02:05:19;;;;;;;5.25;1.70;;;20.40;79.60;;;;;;5072439;28;20205;-57
2023/06/27 02:07:46;;;;;;;6.68;2.10;;;20.40;79.80;;;;;;5072397;28;20208;-56
2023/06/27 02:10:12;;;;;;;5.85;2.00;;;20.40;80.00;;;;;;5072302;28;20263;-56
2023/06/27 02:12:39;;;;;;;3.88;2.15;;;20.30;79.90;;;;;;5072032;28;20236;-57
2023/06/27 02:15:09;;;;;;;5.22;2.22;;;20.30;79.80;;;;;;5072680;28;20208;-57
2023/06/27 02:17:35;;;;;;;7.53;1.63;;;20.30;79.80;;;;;;5072268;28;20231;-57
2023/06/27 02:20:02;;;;;;;4.88;1.70;;;20.40;79.80;;;;;;5072231;28;20208;-56
2023/06/27 02:22:30;;;;;;;4.50;1.35;;;20.40;79.60;;;;;;5071919;28;20221;-56
2023/06/27 02:24:57;;;;;;;3.45;1.67;;;20.40;79.40;;;;;;5071912;28;20266;-58
2023/06/27 02:27:23;;;;;;;3.97;1.80;;;20.50;79.40;;;;;;5072009;28;20394;-57
2023/06/27 02:29:51;;;;;;;3.38;1.50;;;20.50;79.20;;;;;;5072040;28;20213;-56
2023/06/27 02:32:19;;;;;;;3.55;1.70;;;20.60;79.40;;;;;;5071879;28;20331;-57
2023/06/27 02:34:45;;;;;;;3.38;1.58;;;20.60;79.10;;;;;;5072061;28;20232;-58
2023/06/27 02:37:12;;;;;;;2.65;1.40;;;20.50;78.80;;;;;;5071541;28;20205;-56
2023/06/27 02:39:38;;;;;;;5.25;2.08;;;20.50;79.10;;;;;;5071777;28;20212;-56
2023/06/27 02:42:06;;;;;;;3.10;1.50;;;20.40;79.20;;;;;;5072066;28;20224;-58
2023/06/27 02:44:33;;;;;;;5.22;1.63;;;20.50;79.40;;;;;;5071931;28;20200;-56
2023/06/27 02:46:59;;;;;;;4.93;1.70;;;20.40;79.40;;;;;;5071643;28;20253;-58
2023/06/27 02:49:27;;;;;;;4.85;1.70;;;20.50;79.50;;;;;;5071767;28;20204;-57
2023/06/27 02:51:54;;;;;;;3.10;1.63;;;20.50;80.20;;;;;;5071497;28;20300;-56
2023/06/27 02:54:21;;;;;;;3.95;1.67;;;20.50;79.50;;;;;;5071773;28;20239;-56
2023/06/27 02:56:47;;;;;;;3.28;1.73;;;20.50;79.40;;;;;;5071417;28;20200;-59
2023/06/27 02:59:14;;;;;;;3.50;1.70;;;20.40;79.10;;;;;;5071350;28;20322;-57
2023/06/27 03:01:41;;;;;;;6.72;3.53;;;20.40;79.70;;;;;;5071280;28;20703;-56
2023/06/27 03:04:10;;;;;;;5.60;2.13;;;20.40;80.30;;;;;;5071423;28;20205;-58
2023/06/27 03:06:38;;;;;;;5.88;3.10;;;20.40;80.50;;;;;;5070748;28;20756;-56
2023/06/27 03:09:05;;;;;;;8.38;6.47;;;20.50;80.50;;;;;;5071367;28;20258;-58
2023/06/27 03:11:32;;;;;;;4.97;1.90;;;20.50;80.50;;;;;;5071394;28;20204;-56
2023/06/27 03:13:58;;;;;;;5.05;2.35;;;20.50;80.60;;;;;;5071115;28;20230;-57
2023/06/27 03:16:25;;;;;;;2.72;2.03;;;20.50;80.90;;;;;;5071053;28;20205;-57
2023/06/27 03:18:52;;;;;;;3.20;1.95;;;20.50;80.90;;;;;;5071130;28;20667;-56
2023/06/27 03:21:19;;;;;;;5.32;2.00;;;20.50;81.10;;;;;;5071651;28;20213;-57
2023/06/27 03:23:47;;;;;;;2.30;1.90;;;20.50;81.40;;;;;;5071193;28;20615;-57
2023/06/27 03:26:14;;;;;;;3.80;1.80;;;20.40;81.70;;;;;;5070894;28;20200;-56
2023/06/27 03:28:40;;;;;;;4.80;2.17;;;20.40;81.90;;;;;;5070876;28;20676;-58
2023/06/27 03:31:07;;;;;;;6.63;2.72;;;20.30;82.10;;;;;;5070885;28;20236;-57
2023/06/27 03:33:34;;;;;;;8.95;4.25;;;20.20;82.40;;;;;;5070679;28;20274;-56
2023/06/27 03:36:01;;;;;;;2.80;1.75;;;20.20;82.70;;;;;;5070870;28;20212;-58
2023/06/27 03:38:27;;;;;;;6.70;3.20;;;20.10;82.90;;;;;;5070993;28;20201;-56
2023/06/27 03:40:55;;;;;;;4.55;2.47;;;20.10;82.90;;;;;;5071332;28;20204;-57
2023/06/27 03:43:22;;;;;;;4.50;1.80;;;20.00;83.00;;;;;;5071066;28;20229;-57
2023/06/27 03:45:49;;;;;;;4.93;2.65;;;20.00;83.70;;;;;;5070850;28;20250;-59
2023/06/27 03:48:15;;;;;;;10.10;5.70;;;20.00;83.30;;;;;;5070941;28;20258;-56
2023/06/27 03:50:42;;;;;;;4.63;3.03;;;20.00;83.60;;;;;;5071061;28;20282;-57
2023/06/27 03:53:09;;;;;;;6.03;2.08;;;20.00;83.70;;;;;;5073470;28;20568;-59
2023/06/27 03:55:38;;;;;;;2.45;1.75;;;20.10;83.70;;;;;;5075097;28;20250;-57
2023/06/27 03:58:06;;;;;;;5.18;1.85;;;20.00;83.60;;;;;;5074807;28;20220;-57
2023/06/27 04:00:33;;;;;;;3.03;1.90;;;19.90;84.60;;;;;;5074907;28;20209;-57
2023/06/27 04:02:59;;;;;;;4.85;2.72;;;19.80;84.60;;;;;;5074602;28;20231;-57
2023/06/27 04:05:26;;;;;;;3.92;2.08;;;19.90;84.60;;;;;;5074981;28;20201;-56
2023/06/27 04:07:53;;;;;;;6.80;2.20;;;20.00;84.40;;;;;;5074817;28;20204;-56
2023/06/27 04:10:20;;;;;;;4.63;2.05;;;20.00;84.70;;;;;;5074561;28;20313;-57
2023/06/27 04:12:47;;;;;;;5.00;1.90;;;20.00;85.00;;;;;;5074392;28;20684;-56
2023/06/27 04:15:15;;;;;;;3.53;1.70;;;20.10;85.60;;;;;;5074252;28;20624;-57
2023/06/27 04:17:42;;;;;;;6.30;2.33;;;20.10;85.60;;;;;;5074658;28;20213;-56
2023/06/27 04:20:11;;;;;;;5.32;1.90;;;20.10;85.60;;;;;;5074663;28;20216;-56
2023/06/27 04:22:37;;;;;;;4.95;2.05;;;20.10;85.60;;;;;;5074548;28;20221;-59
2023/06/27 04:25:08;;;;;;;3.40;1.92;;;20.10;85.90;;;;;;5074265;28;20254;-57
2023/06/27 04:27:34;;;;;;;6.55;2.60;;;20.20;86.10;;;;;;5074284;28;20296;-58
2023/06/27 04:30:01;;;;;;;2.40;1.50;;;20.20;85.90;;;;;;5074187;28;20710;-56
2023/06/27 04:32:33;;;;;;;4.47;2.00;;;20.20;85.60;;;;;;5074795;28;20236;-56
2023/06/27 04:34:59;;;;;;;4.65;2.47;;;20.20;84.80;;;;;;5074629;28;20225;-57
2023/06/27 04:37:26;;;;;;;2.15;1.45;;;20.20;85.10;;;;;;5073665;28;20560;-59
2023/06/27 04:39:53;;;;;;;6.35;1.90;;;20.20;85.30;;;;;;5074231;28;20205;-58
2023/06/27 04:42:20;;;;;;;3.83;2.13;;;20.20;85.20;;;;;;5073979;28;20260;-59
2023/06/27 04:44:47;;;;;;;4.53;1.88;;;20.30;85.40;;;;;;5074691;28;20284;-58
2023/06/27 04:47:13;;;;;;;6.68;2.50;;;20.30;84.70;;;;;;5074184;28;20278;-58
2023/06/27 04:49:41;;;;;;;5.57;2.50;;;20.30;84.50;;;;;;5074229;28;20216;-60
2023/06/27 04:52:08;;;;;;;3.83;1.77;;;20.30;84.00;;;;;;5074264;28;20225;-58
2023/06/27 04:54:35;;;;;;;7.00;2.00;;;20.20;84.40;;;;;;5073946;28;20236;-57
2023/06/27 04:57:02;;;;;;;2.42;1.70;;;20.10;85.10;;;;;;5074447;28;20213;-57
2023/06/27 04:59:31;;;;;;;4.60;1.70;;;20.10;85.00;;;;;;5074374;28;20208;-57
2023/06/27 05:01:57;;;;;;;6.20;2.15;;;20.30;84.70;;;;;;5073981;28;20205;-58
2023/06/27 05:04:24;;;;;;;4.28;2.10;;;20.20;84.20;;;;;;5073362;28;20206;-56
2023/06/27 05:06:53;;;;;;;5.63;2.00;;;20.30;84.50;;;;;;5073750;28;20231;-57
2023/06/27 05:09:20;;;;;;;4.88;1.70;;;20.30;84.40;;;;;;5073675;28;20209;-57
2023/06/27 05:11:47;;;;;;;3.10;1.75;;;20.30;84.70;;;;;;5073248;28;20694;-58
2023/06/27 05:14:14;;;;;;;4.45;2.20;;;20.50;84.70;;;;;;5073445;28;20597;-57
2023/06/27 05:16:41;;;;;;;4.95;1.70;;;20.50;84.10;;;;;;5072977;28;20308;-59
2023/06/27 05:19:08;;;;;;;5.47;2.40;;;20.50;84.00;;;;;;5073509;28;20258;-56
2023/06/27 05:21:34;;;;;;;4.03;2.20;;;20.60;83.90;;;;;;5073563;28;20240;-56
2023/06/27 05:24:05;;;;;;;6.65;2.08;;;20.70;83.30;;;;;;5073530;28;20228;-58
2023/06/27 05:26:32;;;;;;;3.83;1.58;;;20.80;83.40;;;;;;5073391;28;20220;-57
2023/06/27 05:28:59;;;;;;;2.95;1.98;;;20.90;82.90;;;;;;5073592;28;20209;-57
2023/06/27 05:31:26;;;;;;;3.17;1.73;;;21.10;82.00;;;;;;5073481;28;20205;-57
2023/06/27 05:33:53;;;;;;;3.63;1.83;;;21.20;81.50;;;;;;5073815;28;20278;-57
2023/06/27 05:36:19;;;;;;;7.15;1.70;;;21.60;81.30;;;;;;5073141;28;20239;-59
2023/06/27 05:38:46;;;;;;;4.55;1.75;;;21.90;79.70;;;;;;5073618;28;20639;-56
2023/06/27 05:41:17;;;;;;;3.95;1.52;;;22.10;78.20;;;;;;5073649;28;20254;-56
2023/06/27 05:43:44;;;;;;;5.47;1.90;;;22.20;77.50;;;;;;5073429;28;20236;-56
2023/06/27 05:46:11;;;;;;;7.03;1.90;;;22.20;77.10;;;;;;5073025;28;20644;-56
2023/06/27 05:48:38;;;;;;;6.55;1.75;;;22.30;76.20;;;;;;5072806;28;20668;-57
2023/06/27 05:51:04;;;;;;;3.65;1.70;;;22.40;74.80;;;;;;5073010;28;20204;-55
2023/06/27 05:53:31;;;;;;;4.00;1.60;;;22.60;73.50;;;;;;5073058;28;20598;-56
2023/06/27 05:55:58;;;;;;;5.05;1.77;;;22.70;73.60;;;;;;5072439;28;20621;-58
2023/06/27 05:58:26;;;;;;;3.03;1.77;;;22.90;73.20;;;;;;5072976;28;20291;-56
2023/06/27 06:00:54;;;;;;;5.15;1.58;;;23.10;72.60;;;;;;5072794;28;20209;-56
2023/06/27 06:03:21;;;;;;;2.80;1.65;;;23.40;72.00;;;;;;5072839;28;20649;-56
2023/06/27 06:05:48;;;;;;;5.18;1.85;;;23.90;70.30;;;;;;5071948;28;20730;-57
2023/06/27 06:08:15;;;;;;;4.30;1.77;;;24.10;69.50;;;;;;5072300;28;20660;-56
2023/06/27 06:10:41;;;;;;;7.22;2.10;;;24.20;68.90;;;;;;5072557;28;20704;-56
2023/06/27 06:13:08;;;;;;;4.30;1.83;;;24.30;69.00;;;;;;5072435;28;20621;-58
2023/06/27 06:15:36;;;;;;;2.97;1.67;;;24.40;68.00;;;;;;5071596;28;20228;-57
2023/06/27 06:18:03;;;;;;;4.43;1.50;;;24.50;67.20;;;;;;5071853;28;20209;-56
2023/06/27 06:20:30;;;;;;;7.13;1.60;;;24.30;67.30;;;;;;5072368;28;20205;-56
2023/06/27 06:22:59;;;;;;;4.85;2.03;;;24.20;67.70;;;;;;5072443;28;20231;-59
2023/06/27 06:25:26;;;;;;;2.78;1.23;;;24.20;66.80;;;;;;5072306;28;20201;-58
2023/06/27 06:27:53;;;;;;;3.42;1.42;;;24.20;66.90;;;;;;5072128;28;20209;-57
2023/06/27 06:30:20;;;;;;;3.50;1.50;;;24.30;66.80;;;;;;5072110;28;20204;-57
2023/06/27 06:32:48;;;;;;;3.30;1.65;;;24.30;65.20;;;;;;5072132;28;20289;-57
2023/06/27 06:35:15;;;;;;;3.15;1.27;;;24.30;66.20;;;;;;5072085;28;20221;-60
2023/06/27 06:37:41;;;;;;;2.83;1.40;;;24.50;65.10;;;;;;5072163;28;20270;-56
2023/06/27 06:40:09;;;;;;;4.57;1.60;;;25.20;63.70;;;;;;5071731;28;20313;-56
2023/06/27 06:42:36;;;;;;;2.47;1.50;;;25.70;62.10;;;;;;5071636;28;20229;-57
2023/06/27 06:45:04;;;;;;;2.17;1.55;;;26.20;61.10;;;;;;5071752;28;20294;-57
2023/06/27 06:47:30;;;;;;;2.55;1.40;;;26.70;59.30;;;;;;5071100;28;20216;-56
2023/06/27 06:49:58;;;;;;;4.45;1.50;;;27.70;58.30;;;;;;5071620;28;20644;-58
2023/06/27 06:52:25;;;;;;;2.05;1.27;;;28.60;55.00;;;;;;5071812;28;20645;-59
2023/06/27 06:54:52;;;;;;;4.57;1.40;;;29.20;53.70;;;;;;5071323;28;20221;-57
2023/06/27 06:57:19;;;;;;;2.30;1.40;;;30.40;52.30;;;;;;5071248;28;20684;-57
2023/06/27 06:59:46;;;;;;;2.55;1.40;;;30.80;51.30;;;;;;5071617;28;20209;-60
2023/06/27 07:02:13;;;;;;;3.63;1.33;;;32.10;49.80;;;;;;5071294;28;20229;-59
2023/06/27 07:04:40;;;;;;;3.80;1.40;;;32.60;47.70;;;;;;5071544;28;20616;-57
2023/06/27 07:07:09;;;;;;;4.72;1.63;;;32.40;48.50;;;;;;5071141;28;20274;-57
2023/06/27 07:09:35;;;;;;;6.40;1.60;;;33.00;47.60;;;;;;5071584;28;20213;-57
2023/06/27 07:12:02;;;;;;;3.13;1.30;;;33.30;46.00;;;;;;5071045;28;20692;-57
2023/06/27 07:14:29;;;;;;;5.18;1.60;;;32.20;47.60;;;;;;5072511;28;20643;-58
2023/06/27 07:16:55;;;;;;;6.15;1.55;;;30.90;49.10;;;;;;5071108;28;20626;-57
2023/06/27 07:19:22;;;;;;;4.15;1.25;;;29.50;51.00;;;;;;5071067;28;20236;-58
2023/06/27 07:21:49;;;;;;;3.60;1.40;;;28.60;52.30;;;;;;5071178;28;20310;-57
2023/06/27 07:24:17;;;;;;;5.20;1.73;;;28.80;51.60;;;;;;5071011;28;20201;-57
2023/06/27 07:26:44;;;;;;;6.47;1.55;;;29.40;51.20;;;;;;5070634;28;20637;-57
2023/06/27 07:29:11;;;;;;;2.75;1.63;;;29.70;50.60;;;;;;5071771;28;20212;-58
2023/06/27 07:31:37;;;;;;;3.47;1.67;;;29.40;51.10;;;;;;5071091;28;20292;-58
2023/06/27 07:34:04;;;;;;;3.13;1.40;;;29.10;51.70;;;;;;5071028;28;20294;-58
2023/06/27 07:36:31;;;;;;;2.50;1.50;;;29.30;51.50;;;;;;5070878;28;20669;-57
2023/06/27 07:38:58;;;;;;;5.13;2.10;;;29.30;51.60;;;;;;5070986;28;20209;-58
2023/06/27 07:41:26;;;;;;;2.42;1.58;;;29.50;51.10;;;;;;5070642;28;20296;-59
2023/06/27 07:43:53;;;;;;;4.22;1.40;;;29.60;51.10;;;;;;5070699;28;20228;-58
2023/06/27 07:46:19;;;;;;;3.47;1.58;;;29.50;50.80;;;;;;5070890;28;20201;-57
2023/06/27 07:48:46;;;;;;;4.25;1.90;;;29.30;50.60;;;;;;5071102;28;20207;-58
2023/06/27 07:51:13;;;;;;;4.45;1.48;;;30.00;50.50;;;;;;5071255;28;20205;-58
2023/06/27 07:53:39;;;;;;;4.47;1.77;;;30.60;49.40;;;;;;5070983;28;20827;-57
2023/06/27 07:56:07;;;;;;;5.05;1.67;;;30.90;49.50;;;;;;5070326;28;20769;-57
2023/06/27 07:58:35;;;;;;;6.70;1.67;;;31.20;48.60;;;;;;5070913;28;20287;-58
2023/06/27 08:01:01;;;;;;;4.03;1.67;;;31.10;48.60;;;;;;5070810;28;20274;-58
2023/06/27 08:03:28;;;;;;;4.25;2.20;;;30.80;49.10;;;;;;5070880;28;20228;-58
2023/06/27 08:05:55;;;;;;;4.57;1.83;;;30.70;49.50;;;;;;5070538;28;20782;-58
2023/06/27 08:08:22;;;;;;;5.35;1.42;;;30.60;48.80;;;;;;5070987;28;20232;-58
2023/06/27 08:10:49;;;;;;;3.92;1.60;;;30.50;49.40;;;;;;5070460;28;20207;-58
2023/06/27 08:13:15;;;;;;;4.30;1.75;;;30.70;49.30;;;;;;5070575;28;20599;-58
2023/06/27 08:15:43;;;;;;;3.40;1.40;;;30.90;49.00;;;;;;5070418;28;20583;-58
2023/06/27 08:18:10;;;;;;;1.67;1.23;;;31.00;48.30;;;;;;5070520;28;20208;-58
2023/06/27 08:20:37;;;;;;;4.63;1.42;;;30.90;48.80;;;;;;5070354;28;20211;-59
2023/06/27 08:23:03;;;;;;;2.63;1.60;;;31.00;48.70;;;;;;5070116;28;20225;-59
2023/06/27 08:25:30;;;;;;;2.50;1.30;;;30.80;48.80;;;;;;5070087;28;20208;-58
2023/06/27 08:27:57;;;;;;;3.65;1.77;;;30.20;50.00;;;;;;5070492;28;20209;-58
2023/06/27 08:30:23;;;;;;;3.78;1.50;;;29.60;50.40;;;;;;5070691;28;20212;-57
2023/06/27 08:32:52;;;;;;;5.70;1.70;;;29.50;50.80;;;;;;5068859;28;20229;-61
2023/06/27 08:35:19;;;;;;;5.55;1.90;;;29.00;51.30;;;;;;5068502;28;20225;-60
2023/06/27 08:37:46;;;;;;;4.00;1.30;;;28.70;51.60;;;;;;5070042;28;20205;-62
2023/06/27 08:40:19;;;;;;;2.08;1.30;;;28.60;51.90;;;;;;5074247;28;20201;-61
2023/06/27 08:42:46;;;;;;;5.85;1.60;;;28.80;51.80;;;;;;5073808;28;20356;-61
2023/06/27 08:45:13;;;;;;;2.30;1.48;;;29.00;51.10;;;;;;5073540;28;20196;-60
2023/06/27 08:47:42;;;;;;;3.35;1.60;;;28.90;51.10;;;;;;5073562;28;20654;-61
2023/06/27 08:50:14;;;;;;;5.70;1.80;;;28.90;51.80;;;;;;5074093;28;20310;-64
2023/06/27 08:52:44;;;;;;;5.28;1.42;;;29.00;51.20;;;;;;5073811;28;20704;-61
2023/06/27 08:55:19;;;;;;;3.75;1.55;;;29.00;50.30;;;;;;5073539;28;20304;-61
2023/06/27 08:57:47;;;;;;;5.30;1.85;;;28.90;50.60;;;;;;5073413;28;20216;-58
2023/06/27 09:00:19;;;;;;;4.20;2.10;;;28.90;51.10;;;;;;5073652;28;20201;-57
2023/06/27 09:02:46;;;;;;;3.10;1.92;;;29.20;50.40;;;;;;5073980;28;20308;-57
2023/06/27 09:05:15;;;;;;;3.25;1.60;;;29.30;50.80;;;;;;5073831;28;20215;-59
2023/06/27 09:07:42;;;;;;;2.33;1.30;;;29.40;50.30;;;;;;5073278;28;20583;-59
2023/06/27 09:10:10;;;;;;;3.33;1.45;;;29.60;50.00;;;;;;5073208;28;20286;-60
2023/06/27 09:12:39;;;;;;;5.18;1.45;;;29.50;49.60;;;;;;5073866;28;20260;-61
2023/06/27 09:15:07;;;;;;;4.07;1.48;;;29.40;50.30;;;;;;5073832;28;20228;-60
2023/06/27 09:17:33;;;;;;;5.30;1.60;;;29.30;50.20;;;;;;5073283;28;20208;-60
2023/06/27 09:20:00;;;;;;;4.32;1.60;;;29.10;50.50;;;;;;5072882;28;20255;-60
2023/06/27 09:22:29;;;;;;;3.55;1.73;;;28.50;51.40;;;;;;5073598;28;20409;-59
2023/06/27 09:25:10;;;;;;;6.57;1.63;;;27.70;52.60;;;;;;5073519;28;20213;-59
2023/06/27 09:27:38;;;;;;;3.47;1.38;;;27.10;53.60;;;;;;5073006;28;20640;-61
2023/06/27 09:30:06;;;;;;;3.40;1.50;;;26.80;54.10;;;;;;5073297;28;20209;-59
2023/06/27 09:32:33;;;;;;;5.45;1.70;;;26.70;54.10;;;;;;5072944;28;20233;-61
2023/06/27 09:35:02;;;;;;;4.72;1.60;;;26.50;54.40;;;;;;5073430;28;20231;-59
2023/06/27 09:37:32;;;;;;;3.63;1.42;;;26.70;54.70;;;;;;5072890;28;20649;-59
2023/06/27 09:39:58;;;;;;;3.80;1.40;;;26.80;54.30;;;;;;5073974;28;20231;-59
2023/06/27 09:42:25;;;;;;;4.38;2.58;;;27.40;54.10;;;;;;5072823;28;20220;-59
2023/06/27 09:44:52;;;;;;;3.15;1.48;;;28.00;53.10;;;;;;5072806;28;20205;-58
2023/06/27 09:47:18;;;;;;;2.58;1.30;;;28.40;51.90;;;;;;5072757;28;20211;-56
2023/06/27 09:49:45;;;;;;;5.15;1.75;;;28.30;51.60;;;;;;5071710;28;20225;-55
2023/06/27 09:52:12;;;;;;;1.95;1.50;;;28.30;51.40;;;;;;5072917;28;20229;-58
2023/06/27 09:54:47;;;;;;;6.43;1.90;;;28.20;52.00;;;;;;5072559;28;20236;-57
2023/06/27 09:57:16;;;;;;;3.35;1.85;;;28.10;52.00;;;;;;5072657;28;20248;-58
2023/06/27 09:59:43;;;;;;;2.90;1.50;;;28.10;51.80;;;;;;5072581;28;20300;-57
2023/06/27 10:02:14;;;;;;;3.20;1.60;;;28.20;51.60;;;;;;5072348;28;20715;-57
2023/06/27 10:04:41;;;;;;;5.10;1.70;;;28.30;51.40;;;;;;5072076;28;20216;-57
2023/06/27 10:07:09;;;;;;;3.25;1.52;;;28.50;51.50;;;;;;5072052;28;20224;-57
2023/06/27 10:09:37;;;;;;;7.15;1.75;;;28.50;51.30;;;;;;5072847;28;20205;-56
2023/06/27 10:12:07;;;;;;;6.03;1.77;;;28.30;51.80;;;;;;5072299;28;20319;-57
2023/06/27 10:14:34;;;;;;;4.32;1.73;;;28.30;51.40;;;;;;5072204;28;20669;-57
2023/06/27 10:17:02;;;;;;;4.95;1.45;;;28.30;51.40;;;;;;5072119;28;20232;-58
2023/06/27 10:19:31;;;;;;;2.53;1.45;;;28.40;51.00;;;;;;5071869;28;20296;-58
2023/06/27 10:22:00;;;;;;;4.20;1.65;;;28.60;51.10;;;;;;5071959;28;20263;-56
2023/06/27 10:24:28;;;;;;;4.47;1.92;;;28.80;50.80;;;;;;5072492;28;20212;-56
2023/06/27 10:26:57;;;;;;;2.30;1.50;;;29.10;50.10;;;;;;5071959;28;20201;-60
2023/06/27 10:29:31;;;;;;;5.57;2.60;;;29.20;49.60;;;;;;5071748;28;20234;-57
2023/06/27 10:31:59;;;;;;;5.13;2.00;;;29.60;49.60;;;;;;5071455;28;20204;-56
2023/06/27 10:34:28;;;;;;;5.00;2.42;;;29.90;48.90;;;;;;5071770;28;20308;-57
2023/06/27 10:36:59;;;;;;;7.32;3.22;;;30.30;48.30;;;;;;5071852;28;20326;-58
2023/06/27 10:39:29;;;;;;;3.92;1.80;;;30.60;48.00;;;;;;5072047;28;20215;-57
2023/06/27 10:42:05;;;;;;;3.35;1.38;;;30.90;47.00;;;;;;5071821;28;20208;-57
2023/06/27 10:44:50;;;;;;;4.70;1.70;;;31.20;46.50;;;;;;5071288;28;20257;-56
2023/06/27 10:47:29;;;;;;;1.65;1.25;;;31.40;46.50;;;;;;5071853;28;20336;-56
2023/06/27 10:50:02;;;;;;;2.58;1.40;;;31.00;46.80;;;;;;5071684;28;20205;-56
2023/06/27 10:52:29;;;;;;;3.00;1.85;;;30.70;46.80;;;;;;5071836;28;20713;-56
2023/06/27 10:55:20;;;;;;;4.07;1.60;;;30.70;47.40;;;;;;5071625;28;20201;-59
2023/06/27 10:57:56;;;;;;;6.93;1.70;;;30.80;46.60;;;;;;5062401;28;20213;-56
2023/06/27 11:00:26;;;;;;;3.38;1.70;;;30.70;47.00;;;;;;5071373;28;20215;-56
2023/06/27 11:02:57;;;;;;;5.32;1.50;;;30.30;47.20;;;;;;5071010;28;20704;-57
2023/06/27 11:05:43;;;;;;;5.88;1.65;;;30.20;47.20;;;;;;5071626;28;20212;-56
2023/06/27 11:08:13;;;;;;;7.50;1.95;;;30.00;46.60;;;;;;5071477;28;20517;-57
2023/06/27 11:10:50;;;;;;;5.03;1.50;;;30.00;46.30;;;;;;5071613;28;20358;-56
2023/06/27 11:13:21;;;;;;;4.20;1.63;;;30.00;46.30;;;;;;5071363;28;20738;-57
2023/06/27 11:15:51;;;;;;;3.35;1.70;;;30.00;46.10;;;;;;5070927;28;20648;-57
2023/06/27 11:18:19;;;;;;;2.65;1.70;;;30.10;46.10;;;;;;5071238;28;20304;-56
2023/06/27 11:20:46;;;;;;;7.22;1.70;;;30.50;45.70;;;;;;5071362;28;20216;-56
2023/06/27 11:23:14;;;;;;;2.03;1.38;;;30.80;46.00;;;;;;5071298;28;20228;-57
2023/06/27 11:25:43;;;;;;;4.68;1.73;;;31.10;45.90;;;;;;5071218;28;20201;-57
2023/06/27 11:28:10;;;;;;;2.85;1.80;;;31.30;44.90;;;;;;5071801;28;20291;-57
2023/06/27 11:30:37;;;;;;;4.43;1.73;;;31.10;45.10;;;;;;5071269;28;20212;-57
2023/06/27 11:33:05;;;;;;;4.63;1.60;;;30.80;44.90;;;;;;5071161;28;20782;-56
2023/06/27 11:35:32;;;;;;;3.13;1.60;;;30.30;44.80;;;;;;5071248;28;20258;-56
2023/06/27 11:38:00;;;;;;;3.58;1.65;;;30.00;45.50;;;;;;5071685;28;20207;-57
2023/06/27 11:40:30;;;;;;;7.75;1.70;;;29.90;45.50;;;;;;5071425;28;20290;-58
2023/06/27 11:43:04;;;;;;;8.05;1.77;;;30.00;45.50;;;;;;5071163;28;20263;-57
2023/06/27 11:45:31;;;;;;;2.58;1.50;;;30.30;45.70;;;;;;5070498;28;20249;-56
2023/06/27 11:47:58;;;;;;;2.47;1.50;;;30.20;45.70;;;;;;5071041;28;20303;-56
2023/06/27 11:50:27;;;;;;;3.40;1.40;;;30.30;45.50;;;;;;5071162;28;20205;-61
2023/06/27 11:52:57;;;;;;;3.33;1.23;;;30.40;45.30;;;;;;5071266;28;20236;-58
2023/06/27 11:55:23;;;;;;;2.90;1.40;;;30.50;45.10;;;;;;5070767;28;20213;-61
2023/06/27 11:57:54;;;;;;;1.80;1.20;;;30.50;45.50;;;;;;5070566;28;20227;-57
2023/06/27 12:00:23;;;;;;;3.30;1.50;;;30.60;45.10;;;;;;5071170;28;20235;-59
2023/06/27 12:02:51;;;;;;;2.47;1.75;;;30.20;45.50;;;;;;5071000;28;20320;-57
2023/06/27 12:05:19;;;;;;;3.80;1.35;;;29.60;46.00;;;;;;5070720;28;20201;-60
2023/06/27 12:07:58;;;;;;;5.18;1.70;;;29.30;46.70;;;;;;5071187;28;20610;-57
2023/06/27 12:10:25;;;;;;;4.03;1.77;;;29.20;47.10;;;;;;5070966;28;20208;-56
2023/06/27 12:12:52;;;;;;;3.50;2.08;;;29.30;47.30;;;;;;5071141;28;20649;-58
2023/06/27 12:15:18;;;;;;;2.40;1.58;;;29.70;47.20;;;;;;5075181;28;20212;-58
2023/06/27 12:17:59;;;;;;;3.42;1.75;;;30.00;46.10;;;;;;5074858;28;20224;-56
2023/06/27 12:20:26;;;;;;;3.35;1.50;;;30.30;45.80;;;;;;5074738;28;20232;-58
2023/06/27 12:22:53;;;;;;;5.75;1.75;;;30.50;45.70;;;;;;5074282;28;20229;-58
2023/06/27 12:25:21;;;;;;;4.40;2.15;;;30.80;45.50;;;;;;5075035;28;20209;-60
2023/06/27 12:27:48;;;;;;;3.90;1.25;;;31.20;45.20;;;;;;5075121;28;20209;-59
2023/06/27 12:30:15;;;;;;;3.92;1.40;;;31.50;44.90;;;;;;5074806;28;20223;-57
2023/06/27 12:32:42;;;;;;;2.75;1.50;;;31.70;44.50;;;;;;5074785;28;20225;-58
2023/06/27 12:35:08;;;;;;;4.03;1.40;;;31.80;44.50;;;;;;5074709;28;20217;-59
2023/06/27 12:37:36;;;;;;;3.45;1.40;;;31.70;43.90;;;;;;5075793;28;20225;-57
2023/06/27 12:40:02;;;;;;;2.92;1.42;;;31.30;44.40;;;;;;5076396;28;20201;-57
2023/06/27 12:42:30;;;;;;;3.35;1.45;;;31.00;45.00;;;;;;5076204;28;20282;-56
2023/06/27 12:44:58;;;;;;;2.42;1.63;;;30.90;45.00;;;;;;5075713;28;20232;-54
2023/06/27 12:47:25;;;;;;;3.72;1.65;;;30.80;44.90;;;;;;5075359;28;20237;-55
2023/06/27 12:49:52;;;;;;;3.75;1.70;;;30.60;45.30;;;;;;5075130;28;20205;-55
2023/06/27 12:52:19;;;;;;;4.97;1.63;;;30.50;45.70;;;;;;5074344;28;20267;-57